Time;durP1;ratioP1;P1;durP2;ratioP2;P2;SDS_P1;SDS_P2;PMS_P1;PMS_P2;Temp;Humidity;BMP_temperature;BMP_pressure;BME280_temperature;BME280_humidity;BME280_pressure;Samples;Min_cycle;Max_cycle;Signal;HPM_P1;HPM_P2
2021/08/08 00:00:49;;;;;;;19.00;5.05;;;;;;;;;;5115707;28;20050;-74
2021/08/08 00:03:14;;;;;;;19.90;3.70;;;;;;;;;;5115366;28;20095;-74
2021/08/08 00:05:40;;;;;;;22.98;4.28;;;;;;;;;;5115706;28;20028;-75
2021/08/08 00:08:05;;;;;;;19.05;4.15;;;;;;;;;;5115917;28;20024;-75
2021/08/08 00:10:30;;;;;;;12.70;3.03;;;;;;;;;;5115293;28;20386;-75
2021/08/08 00:12:56;;;;;;;29.95;4.20;;;;;;;;;;5115304;28;20035;-75
2021/08/08 00:15:21;;;;;;;21.50;3.78;;;;;;;;;;5115468;28;20467;-75
2021/08/08 00:17:46;;;;;;;23.33;5.70;;;;;;;;;;5115660;28;20038;-75
2021/08/08 00:20:12;;;;;;;20.10;3.83;;;;;;;;;;5114949;28;20076;-74
2021/08/08 00:22:38;;;;;;;20.77;3.40;;;;;;;;;;5115099;28;20023;-75
2021/08/08 00:25:04;;;;;;;16.45;3.40;;;;;;;;;;5114909;28;20023;-75
2021/08/08 00:27:29;;;;;;;22.08;4.93;;;;;;;;;;5115332;28;20066;-74
2021/08/08 00:29:54;;;;;;;19.45;4.22;;;;;;;;;;5115207;28;20081;-76
2021/08/08 00:32:20;;;;;;;24.50;5.20;;;;;;;;;;5115154;28;20052;-75
2021/08/08 00:34:45;;;;;;;18.30;3.35;;;;;;;;;;5115081;28;20027;-75
2021/08/08 00:37:11;;;;;;;19.20;3.60;;;;;;;;;;5114958;28;20043;-75
2021/08/08 00:39:36;;;;;;;23.15;4.20;;;;;;;;;;5114794;28;20123;-75
2021/08/08 00:42:02;;;;;;;19.77;3.63;;;;;;;;;;5114943;28;20119;-75
2021/08/08 00:44:27;;;;;;;18.38;4.13;;;;;;;;;;5114851;28;20027;-75
2021/08/08 00:46:53;;;;;;;23.10;4.10;;;;;;;;;;5114815;28;20065;-76
2021/08/08 00:49:18;;;;;;;12.60;3.53;;;;;;;;;;5114504;28;20042;-75
2021/08/08 00:51:44;;;;;;;19.13;3.72;;;;;;;;;;5114552;28;20066;-74
2021/08/08 00:54:09;;;;;;;17.63;3.53;;;;;;;;;;5114694;28;20110;-75
2021/08/08 00:56:35;;;;;;;17.90;5.07;;;;;;;;;;5114603;28;20459;-74
2021/08/08 00:59:00;;;;;;;15.93;3.72;;;;;;;;;;5114577;28;20074;-75
2021/08/08 01:01:27;;;;;;;20.63;3.55;;;;;;;;;;5114460;28;20047;-74
2021/08/08 01:03:54;;;;;;;19.58;4.05;;;;;;;;;;5114376;28;20081;-75
2021/08/08 01:06:22;;;;;;;17.58;3.38;;;;;;;;;;5114527;28;20063;-75
2021/08/08 01:08:51;;;;;;;27.23;4.00;;;;;;;;;;5114456;28;20058;-75
2021/08/08 01:11:17;;;;;;;21.63;4.03;;;;;;;;;;5114368;28;20380;-75
2021/08/08 01:13:43;;;;;;;27.65;5.18;;;;;;;;;;5114291;28;20122;-75
2021/08/08 01:16:09;;;;;;;12.65;4.03;;;;;;;;;;5114202;28;20020;-74
2021/08/08 01:18:34;;;;;;;27.73;6.05;;;;;;;;;;5114311;28;20035;-75
2021/08/08 01:21:00;;;;;;;25.38;3.97;;;;;;;;;;5114156;28;20031;-75
2021/08/08 01:23:30;;;;;;;21.85;4.30;;;;;;;;;;5114296;28;20096;-75
2021/08/08 01:25:56;;;;;;;27.70;4.25;;;;;;;;;;5114059;28;20023;-74
2021/08/08 01:28:21;;;;;;;28.48;4.47;;;;;;;;;;5114268;28;20587;-75
2021/08/08 01:30:47;;;;;;;20.00;3.58;;;;;;;;;;5114030;28;20015;-75
2021/08/08 01:33:12;;;;;;;26.67;4.75;;;;;;;;;;5114074;28;20487;-75
2021/08/08 01:35:37;;;;;;;27.65;3.97;;;;;;;;;;5113201;28;20036;-75
2021/08/08 01:38:03;;;;;;;23.60;4.22;;;;;;;;;;5113980;28;20016;-75
2021/08/08 01:40:32;;;;;;;26.33;4.18;;;;;;;;;;5113983;28;20055;-75
2021/08/08 01:42:58;;;;;;;23.02;4.18;;;;;;;;;;5113583;28;20470;-75
2021/08/08 01:45:24;;;;;;;29.30;4.68;;;;;;;;;;5113489;28;20024;-75
2021/08/08 01:47:52;;;;;;;17.95;3.60;;;;;;;;;;5113874;28;20085;-74
2021/08/08 01:50:17;;;;;;;23.30;3.90;;;;;;;;;;5113577;28;20420;-74
2021/08/08 01:52:43;;;;;;;29.48;5.60;;;;;;;;;;5113693;28;20027;-75
2021/08/08 01:55:09;;;;;;;24.25;4.00;;;;;;;;;;5113841;28;20023;-75
2021/08/08 01:57:35;;;;;;;29.77;5.10;;;;;;;;;;5113747;28;20032;-74
2021/08/08 02:00:03;;;;;;;29.38;4.72;;;;;;;;;;5113695;28;20049;-74
2021/08/08 02:02:28;;;;;;;28.23;4.90;;;;;;;;;;5113692;28;20028;-75
2021/08/08 02:04:53;;;;;;;27.58;4.80;;;;;;;;;;5113729;28;20024;-74
2021/08/08 02:07:18;;;;;;;24.25;5.82;;;;;;;;;;5113758;28;20374;-74
2021/08/08 02:09:44;;;;;;;27.17;6.38;;;;;;;;;;5095460;28;20034;-74
2021/08/08 02:12:10;;;;;;;24.70;3.55;;;;;;;;;;5113619;28;20038;-75
2021/08/08 02:14:35;;;;;;;26.58;4.78;;;;;;;;;;5113479;28;20039;-74
2021/08/08 02:17:01;;;;;;;25.17;3.72;;;;;;;;;;5113549;28;20028;-74
2021/08/08 02:19:26;;;;;;;25.63;4.65;;;;;;;;;;5113609;28;20129;-75
2021/08/08 02:21:52;;;;;;;23.00;3.72;;;;;;;;;;5113279;28;20019;-76
2021/08/08 02:24:17;;;;;;;20.02;4.38;;;;;;;;;;5113468;28;20036;-75
2021/08/08 02:26:42;;;;;;;21.02;4.30;;;;;;;;;;5113561;28;20040;-74
2021/08/08 02:29:08;;;;;;;16.98;3.13;;;;;;;;;;5113407;28;20371;-74
2021/08/08 02:31:40;;;;;;;24.60;3.53;;;;;;;;;;5113311;28;20106;-74
2021/08/08 02:34:06;;;;;;;14.82;3.33;;;;;;;;;;5113329;28;20054;-75
2021/08/08 02:36:31;;;;;;;17.25;3.25;;;;;;;;;;5113470;28;20054;-74
2021/08/08 02:38:57;;;;;;;16.92;3.40;;;;;;;;;;5113342;28;20439;-75
2021/08/08 02:41:22;;;;;;;18.88;3.40;;;;;;;;;;5113394;28;20031;-75
2021/08/08 02:43:47;;;;;;;13.52;2.72;;;;;;;;;;5113343;28;20482;-74
2021/08/08 02:46:12;;;;;;;23.80;3.70;;;;;;;;;;5113748;28;20031;-74
2021/08/08 02:48:38;;;;;;;16.48;3.50;;;;;;;;;;5117090;28;20027;-75
2021/08/08 02:51:03;;;;;;;11.65;2.55;;;;;;;;;;5117222;28;20023;-75
2021/08/08 02:53:29;;;;;;;12.00;3.00;;;;;;;;;;5116699;28;20097;-74
2021/08/08 02:55:54;;;;;;;9.18;2.38;;;;;;;;;;5117036;28;20070;-75
2021/08/08 02:58:19;;;;;;;17.55;3.10;;;;;;;;;;5117191;28;20030;-75
2021/08/08 03:00:45;;;;;;;11.98;3.03;;;;;;;;;;5117217;28;20028;-74
2021/08/08 03:03:10;;;;;;;13.95;2.28;;;;;;;;;;5116915;28;20027;-75
2021/08/08 03:05:35;;;;;;;11.65;2.88;;;;;;;;;;5116858;28;20102;-74
2021/08/08 03:08:00;;;;;;;14.07;3.83;;;;;;;;;;5116447;28;20141;-74
2021/08/08 03:10:26;;;;;;;12.75;2.80;;;;;;;;;;5116500;28;20028;-74
2021/08/08 03:12:51;;;;;;;10.35;2.30;;;;;;;;;;5116588;28;20031;-75
2021/08/08 03:15:16;;;;;;;8.18;2.40;;;;;;;;;;5116649;28;20024;-75
2021/08/08 03:17:42;;;;;;;12.00;3.10;;;;;;;;;;5116619;28;20471;-75
2021/08/08 03:20:07;;;;;;;11.90;2.88;;;;;;;;;;5116293;28;20026;-75
2021/08/08 03:22:33;;;;;;;9.35;2.40;;;;;;;;;;5116474;28;20028;-74
2021/08/08 03:24:58;;;;;;;10.07;2.38;;;;;;;;;;5116566;28;20389;-75
2021/08/08 03:27:23;;;;;;;7.47;2.30;;;;;;;;;;5116361;28;20019;-74
2021/08/08 03:29:49;;;;;;;10.32;2.42;;;;;;;;;;5116495;28;20420;-75
2021/08/08 03:32:14;;;;;;;12.80;3.33;;;;;;;;;;5116087;28;20538;-75
2021/08/08 03:34:39;;;;;;;8.30;2.85;;;;;;;;;;5116488;28;20387;-75
2021/08/08 03:37:05;;;;;;;12.32;3.00;;;;;;;;;;5116292;28;20027;-75
2021/08/08 03:39:30;;;;;;;9.90;3.05;;;;;;;;;;5116170;28;20384;-75
2021/08/08 03:41:55;;;;;;;6.13;2.53;;;;;;;;;;5116153;28;20019;-75
2021/08/08 03:44:21;;;;;;;5.10;2.33;;;;;;;;;;5116103;28;20114;-75
2021/08/08 03:46:47;;;;;;;10.18;2.50;;;;;;;;;;5116079;28;20032;-74
2021/08/08 03:49:12;;;;;;;5.47;2.45;;;;;;;;;;5115621;28;20047;-75
2021/08/08 03:51:38;;;;;;;12.88;2.60;;;;;;;;;;5115958;28;20114;-75
2021/08/08 03:54:03;;;;;;;8.23;2.17;;;;;;;;;;5115861;28;20043;-74
2021/08/08 03:56:29;;;;;;;5.65;1.70;;;;;;;;;;5115946;28;20015;-75
2021/08/08 03:58:54;;;;;;;5.50;1.80;;;;;;;;;;5115204;28;20488;-75
2021/08/08 04:01:20;;;;;;;5.40;1.58;;;;;;;;;;5115808;28;20028;-74
2021/08/08 04:03:45;;;;;;;5.00;1.67;;;;;;;;;;5115768;28;20094;-74
2021/08/08 04:06:10;;;;;;;6.68;1.63;;;;;;;;;;5115499;28;20035;-74
2021/08/08 04:08:36;;;;;;;6.60;2.10;;;;;;;;;;5097566;28;20417;-75
2021/08/08 04:11:01;;;;;;;7.40;1.77;;;;;;;;;;5115547;28;20024;-75
2021/08/08 04:13:26;;;;;;;6.10;1.58;;;;;;;;;;5115033;28;20040;-74
2021/08/08 04:15:51;;;;;;;4.15;1.40;;;;;;;;;;5115524;28;20081;-75
2021/08/08 04:18:17;;;;;;;7.18;2.22;;;;;;;;;;5115295;28;20031;-74
2021/08/08 04:20:42;;;;;;;8.20;1.80;;;;;;;;;;5115401;28;20488;-75
2021/08/08 04:23:10;;;;;;;4.35;1.73;;;;;;;;;;5115042;28;20752;-75
2021/08/08 04:25:35;;;;;;;3.22;1.75;;;;;;;;;;5115055;28;20452;-75
2021/08/08 04:28:00;;;;;;;4.60;1.95;;;;;;;;;;5115151;28;20032;-75
2021/08/08 04:30:27;;;;;;;3.75;1.73;;;;;;;;;;5115213;28;20122;-75
2021/08/08 04:32:53;;;;;;;5.03;1.90;;;;;;;;;;5114710;28;20478;-74
2021/08/08 04:35:18;;;;;;;5.85;2.00;;;;;;;;;;5115117;28;20031;-74
2021/08/08 04:37:44;;;;;;;7.18;2.00;;;;;;;;;;5114740;28;20505;-74
2021/08/08 04:40:09;;;;;;;6.47;2.25;;;;;;;;;;5115017;28;20378;-74
2021/08/08 04:42:35;;;;;;;3.67;2.00;;;;;;;;;;5114805;28;20034;-76
2021/08/08 04:45:00;;;;;;;7.03;2.00;;;;;;;;;;5114980;28;20031;-74
2021/08/08 04:47:26;;;;;;;6.55;2.55;;;;;;;;;;5114857;28;20016;-75
2021/08/08 04:49:51;;;;;;;6.70;2.47;;;;;;;;;;5114848;28;20027;-74
2021/08/08 04:52:16;;;;;;;6.45;2.53;;;;;;;;;;5114740;28;20395;-74
2021/08/08 04:54:41;;;;;;;6.88;2.35;;;;;;;;;;5114597;28;20067;-74
2021/08/08 04:57:07;;;;;;;5.18;2.78;;;;;;;;;;5114577;28;20031;-74
2021/08/08 04:59:32;;;;;;;6.00;2.65;;;;;;;;;;5114704;28;20031;-74
2021/08/08 05:01:57;;;;;;;7.28;3.00;;;;;;;;;;5114615;28;20051;-75
2021/08/08 05:04:23;;;;;;;5.55;2.50;;;;;;;;;;5114477;28;20093;-75
2021/08/08 05:06:48;;;;;;;8.43;2.70;;;;;;;;;;5114610;28;20438;-74
2021/08/08 05:09:13;;;;;;;8.15;2.97;;;;;;;;;;5114402;28;20024;-74
2021/08/08 05:11:38;;;;;;;6.57;3.00;;;;;;;;;;5113695;28;20076;-74
2021/08/08 05:14:04;;;;;;;5.00;3.20;;;;;;;;;;5114199;28;20038;-76
2021/08/08 05:16:29;;;;;;;5.82;3.08;;;;;;;;;;5114059;28;20126;-75
2021/08/08 05:18:54;;;;;;;6.55;3.60;;;;;;;;;;5114247;28;20031;-75
2021/08/08 05:21:20;;;;;;;7.57;3.45;;;;;;;;;;5114262;28;20486;-75
2021/08/08 05:23:45;;;;;;;10.98;3.63;;;;;;;;;;5114236;28;20436;-74
2021/08/08 05:26:10;;;;;;;10.57;4.32;;;;;;;;;;5114115;28;20554;-75
2021/08/08 05:28:36;;;;;;;13.63;4.40;;;;;;;;;;5114120;28;20479;-76
2021/08/08 05:31:01;;;;;;;11.15;4.15;;;;;;;;;;5114181;28;20024;-75
2021/08/08 05:33:26;;;;;;;6.13;3.50;;;;;;;;;;5114470;28;20051;-74
2021/08/08 05:35:52;;;;;;;10.82;4.55;;;;;;;;;;5114039;28;20058;-75
2021/08/08 05:38:18;;;;;;;10.52;5.40;;;;;;;;;;5114053;28;20023;-74
2021/08/08 05:40:43;;;;;;;11.30;4.88;;;;;;;;;;5113610;28;20063;-74
2021/08/08 05:43:09;;;;;;;12.13;5.70;;;;;;;;;;5113968;28;20028;-74
2021/08/08 05:45:34;;;;;;;12.25;5.43;;;;;;;;;;5114033;28;20030;-74
2021/08/08 05:47:59;;;;;;;9.93;4.68;;;;;;;;;;5113806;28;20077;-74
2021/08/08 05:50:24;;;;;;;11.10;5.85;;;;;;;;;;5113905;28;20051;-75
2021/08/08 05:52:50;;;;;;;16.42;5.97;;;;;;;;;;5113484;28;20102;-74
2021/08/08 05:55:16;;;;;;;15.27;5.97;;;;;;;;;;5113766;28;20433;-76
2021/08/08 05:57:41;;;;;;;21.88;6.40;;;;;;;;;;5113785;28;20036;-75
2021/08/08 06:00:07;;;;;;;15.52;6.18;;;;;;;;;;5113853;28;20450;-75
2021/08/08 06:02:33;;;;;;;13.10;5.88;;;;;;;;;;5113767;28;20035;-75
2021/08/08 06:04:58;;;;;;;17.10;6.68;;;;;;;;;;5113644;28;20112;-74
2021/08/08 06:07:23;;;;;;;13.93;6.25;;;;;;;;;;5113768;28;20055;-75
2021/08/08 06:09:49;;;;;;;15.70;7.00;;;;;;;;;;5113676;28;20463;-74
2021/08/08 06:12:14;;;;;;;17.33;7.45;;;;;;;;;;5113637;28;20104;-74
2021/08/08 06:14:39;;;;;;;19.00;7.38;;;;;;;;;;5113611;28;20036;-74
2021/08/08 06:17:05;;;;;;;23.63;7.18;;;;;;;;;;5113910;28;20027;-75
2021/08/08 06:19:30;;;;;;;14.73;6.65;;;;;;;;;;5113691;28;20468;-75
2021/08/08 06:21:55;;;;;;;14.90;6.05;;;;;;;;;;5115143;28;20026;-75
2021/08/08 06:24:20;;;;;;;18.13;7.03;;;;;;;;;;5117669;28;20393;-74
2021/08/08 06:26:46;;;;;;;14.15;7.43;;;;;;;;;;5117801;28;20126;-75
2021/08/08 06:29:11;;;;;;;14.80;5.95;;;;;;;;;;5117565;28;20034;-75
2021/08/08 06:31:36;;;;;;;13.68;6.05;;;;;;;;;;5117465;28;20134;-74
2021/08/08 06:34:02;;;;;;;14.07;5.93;;;;;;;;;;5117346;28;20429;-74
2021/08/08 06:36:28;;;;;;;17.58;5.57;;;;;;;;;;5117504;28;20016;-75
2021/08/08 06:38:53;;;;;;;15.55;6.10;;;;;;;;;;5117299;28;20067;-75
2021/08/08 06:41:18;;;;;;;14.57;6.00;;;;;;;;;;5098945;28;20483;-74
2021/08/08 06:43:44;;;;;;;14.38;6.22;;;;;;;;;;5117340;28;20467;-75
2021/08/08 06:46:09;;;;;;;13.98;5.65;;;;;;;;;;5117202;28;20111;-75
2021/08/08 06:48:35;;;;;;;13.90;6.00;;;;;;;;;;5117206;28;20118;-75
2021/08/08 06:51:01;;;;;;;11.27;4.80;;;;;;;;;;5117123;28;20471;-75
2021/08/08 06:53:26;;;;;;;12.63;5.18;;;;;;;;;;5117088;28;20055;-74
2021/08/08 06:55:51;;;;;;;13.90;5.55;;;;;;;;;;5117032;28;20035;-75
2021/08/08 06:58:17;;;;;;;10.43;4.53;;;;;;;;;;5117026;28;20552;-75
2021/08/08 07:00:42;;;;;;;10.00;4.05;;;;;;;;;;5116942;28;20024;-75
2021/08/08 07:03:07;;;;;;;12.50;4.22;;;;;;;;;;5116981;28;20032;-75
2021/08/08 07:05:32;;;;;;;10.82;3.97;;;;;;;;;;5116911;28;20103;-74
2021/08/08 07:07:58;;;;;;;7.60;3.80;;;;;;;;;;5116817;28;20118;-75
2021/08/08 07:10:23;;;;;;;8.50;4.28;;;;;;;;;;5116781;28;20486;-75
2021/08/08 07:12:48;;;;;;;15.25;4.85;;;;;;;;;;5116484;28;20102;-74
2021/08/08 07:15:13;;;;;;;13.57;4.00;;;;;;;;;;5116660;28;20096;-75
2021/08/08 07:17:39;;;;;;;8.38;3.67;;;;;;;;;;5116412;28;20071;-75
2021/08/08 07:20:06;;;;;;;9.95;3.38;;;;;;;;;;5116626;28;20046;-74
2021/08/08 07:22:31;;;;;;;7.25;3.30;;;;;;;;;;5116344;28;20530;-75
2021/08/08 07:24:56;;;;;;;7.18;2.72;;;;;;;;;;5116195;28;20055;-75
2021/08/08 07:27:22;;;;;;;8.38;2.97;;;;;;;;;;5116413;28;20055;-74
2021/08/08 07:29:47;;;;;;;8.50;2.55;;;;;;;;;;5116402;28;20235;-74
2021/08/08 07:32:12;;;;;;;5.50;2.45;;;;;;;;;;5116182;28;20433;-75
2021/08/08 07:34:37;;;;;;;4.13;2.17;;;;;;;;;;5115566;28;20036;-75
2021/08/08 07:37:03;;;;;;;5.75;2.50;;;;;;;;;;5116189;28;20459;-75
2021/08/08 07:39:31;;;;;;;6.35;2.40;;;;;;;;;;5116226;28;20490;-76
2021/08/08 07:41:56;;;;;;;4.40;2.13;;;;;;;;;;5116147;28;20027;-75
2021/08/08 07:44:21;;;;;;;7.57;2.42;;;;;;;;;;5116128;28;20036;-75
2021/08/08 07:46:47;;;;;;;4.28;2.00;;;;;;;;;;5116016;28;20032;-74
2021/08/08 07:49:12;;;;;;;5.32;2.08;;;;;;;;;;5116049;28;20477;-75
2021/08/08 07:51:37;;;;;;;7.88;2.47;;;;;;;;;;5116013;28;20034;-75
2021/08/08 07:54:02;;;;;;;5.03;2.08;;;;;;;;;;5116052;28;20047;-75
2021/08/08 07:56:28;;;;;;;8.95;3.03;;;;;;;;;;5097651;28;20016;-75
2021/08/08 07:58:53;;;;;;;4.07;1.80;;;;;;;;;;5115926;28;20518;-74
2021/08/08 08:01:18;;;;;;;5.68;1.80;;;;;;;;;;5115754;28;20119;-75
2021/08/08 08:03:44;;;;;;;5.68;1.67;;;;;;;;;;5115824;28;20019;-75
2021/08/08 08:06:09;;;;;;;4.32;1.80;;;;;;;;;;5115645;28;20081;-74
2021/08/08 08:08:34;;;;;;;5.75;1.90;;;;;;;;;;5115773;28;20383;-75
2021/08/08 08:11:00;;;;;;;2.80;1.35;;;;;;;;;;5115486;28;20047;-74
2021/08/08 08:13:25;;;;;;;5.53;1.77;;;;;;;;;;5115602;28;20051;-75
2021/08/08 08:15:50;;;;;;;4.32;1.80;;;;;;;;;;5115490;28;20089;-75
2021/08/08 08:18:15;;;;;;;5.38;1.65;;;;;;;;;;5115439;28;20448;-75
2021/08/08 08:20:42;;;;;;;4.78;1.55;;;;;;;;;;5115219;28;20032;-75
2021/08/08 08:23:07;;;;;;;4.25;1.73;;;;;;;;;;5115080;28;20399;-75
2021/08/08 08:25:33;;;;;;;3.97;1.50;;;;;;;;;;5115318;28;20024;-74
2021/08/08 08:27:58;;;;;;;5.18;1.50;;;;;;;;;;5115209;28;20034;-75
2021/08/08 08:30:24;;;;;;;4.60;1.60;;;;;;;;;;5115169;28;20474;-75
2021/08/08 08:32:49;;;;;;;2.60;1.40;;;;;;;;;;5115173;28;20043;-74
2021/08/08 08:35:15;;;;;;;4.90;1.77;;;;;;;;;;5115220;28;20111;-75
2021/08/08 08:37:40;;;;;;;3.88;1.45;;;;;;;;;;5115143;28;20058;-74
2021/08/08 08:40:06;;;;;;;3.50;1.60;;;;;;;;;;5114891;28;20061;-75
2021/08/08 08:42:33;;;;;;;6.00;1.98;;;;;;;;;;5115016;28;20031;-74
2021/08/08 08:44:59;;;;;;;3.95;1.55;;;;;;;;;;5114764;28;20042;-75
2021/08/08 08:47:24;;;;;;;4.55;1.73;;;;;;;;;;5114801;28;20012;-75
2021/08/08 08:50:04;;;;;;;3.78;1.42;;;;;;;;;;5114886;28;20063;-75
2021/08/08 08:52:30;;;;;;;5.97;1.58;;;;;;;;;;5114585;28;20118;-75
2021/08/08 08:54:56;;;;;;;5.47;1.75;;;;;;;;;;5114794;28;20098;-74
2021/08/08 08:57:21;;;;;;;5.88;1.67;;;;;;;;;;5114663;28;20058;-75
2021/08/08 08:59:48;;;;;;;21.00;1.85;;;;;;;;;;5114836;28;20062;-74
2021/08/08 09:02:14;;;;;;;7.03;1.73;;;;;;;;;;5114540;28;20027;-75
2021/08/08 09:04:39;;;;;;;7.63;1.75;;;;;;;;;;5114665;28;20084;-75
2021/08/08 09:07:04;;;;;;;5.75;2.17;;;;;;;;;;5114405;28;20024;-75
2021/08/08 09:09:31;;;;;;;4.85;2.03;;;;;;;;;;5114636;28;20106;-74
2021/08/08 09:11:56;;;;;;;8.80;2.58;;;;;;;;;;5114423;28;20459;-75
2021/08/08 09:14:22;;;;;;;8.63;2.30;;;;;;;;;;5114305;28;20080;-75
2021/08/08 09:16:51;;;;;;;5.57;2.08;;;;;;;;;;5114388;28;20032;-75
2021/08/08 09:19:18;;;;;;;9.80;2.95;;;;;;;;;;5114323;28;20042;-75
2021/08/08 09:21:43;;;;;;;12.18;2.70;;;;;;;;;;5114259;28;20023;-75
2021/08/08 09:24:09;;;;;;;7.90;2.63;;;;;;;;;;5114536;28;20032;-75
2021/08/08 09:26:35;;;;;;;11.13;2.92;;;;;;;;;;5114263;28;20035;-75
2021/08/08 09:29:03;;;;;;;14.57;2.95;;;;;;;;;;5113787;28;20455;-75
2021/08/08 09:31:29;;;;;;;11.65;3.22;;;;;;;;;;5113986;28;20039;-75
2021/08/08 09:33:54;;;;;;;9.13;3.15;;;;;;;;;;5114030;28;20039;-75
2021/08/08 09:36:19;;;;;;;10.25;2.50;;;;;;;;;;5113981;28;20023;-75
2021/08/08 09:38:45;;;;;;;13.07;2.20;;;;;;;;;;5095791;28;20031;-74
2021/08/08 09:41:11;;;;;;;9.88;2.30;;;;;;;;;;5113663;28;20496;-75
2021/08/08 09:43:36;;;;;;;10.13;2.33;;;;;;;;;;5113983;28;20024;-75
2021/08/08 09:46:01;;;;;;;14.52;3.22;;;;;;;;;;5114060;28;20077;-75
2021/08/08 09:48:37;;;;;;;8.52;2.28;;;;;;;;;;5113934;28;20024;-75
2021/08/08 09:51:06;;;;;;;7.80;2.58;;;;;;;;;;5113789;28;20028;-75
2021/08/08 09:53:31;;;;;;;5.50;2.00;;;;;;;;;;5113791;28;20094;-75
2021/08/08 09:55:57;;;;;;;8.15;2.10;;;;;;;;;;5113284;28;20047;-75
2021/08/08 09:58:22;;;;;;;8.02;2.53;;;;;;;;;;5113744;28;20433;-75
2021/08/08 10:00:56;;;;;;;9.45;2.70;;;;;;;;;;5113812;28;20036;-75
2021/08/08 10:03:21;;;;;;;9.27;2.72;;;;;;;;;;5113552;28;20104;-75
2021/08/08 10:05:46;;;;;;;8.23;2.53;;;;;;;;;;5113494;28;20067;-75
2021/08/08 10:08:16;;;;;;;6.70;2.17;;;;;;;;;;5113609;28;20023;-75
2021/08/08 10:10:43;;;;;;;7.40;2.30;;;;;;;;;;5113520;28;20425;-75
2021/08/08 10:13:08;;;;;;;5.15;2.42;;;;;;;;;;5113526;28;20092;-75
2021/08/08 10:15:41;;;;;;;8.15;2.33;;;;;;;;;;5113706;28;20020;-75
2021/08/08 10:18:06;;;;;;;5.30;2.10;;;;;;;;;;5113602;28;20011;-75
2021/08/08 10:20:34;;;;;;;6.30;2.42;;;;;;;;;;5113849;28;20372;-75
2021/08/08 10:23:00;;;;;;;4.80;1.80;;;;;;;;;;5113728;28;20023;-76
2021/08/08 10:25:26;;;;;;;7.05;1.98;;;;;;;;;;5113727;28;20026;-75
2021/08/08 10:27:51;;;;;;;6.03;2.10;;;;;;;;;;5113578;28;20122;-75
2021/08/08 10:30:17;;;;;;;6.05;2.10;;;;;;;;;;5113469;28;20405;-76
2021/08/08 10:32:42;;;;;;;7.07;2.00;;;;;;;;;;5113432;28;20052;-75
2021/08/08 10:35:08;;;;;;;6.90;1.95;;;;;;;;;;5113576;28;20085;-75
2021/08/08 10:37:34;;;;;;;6.57;1.80;;;;;;;;;;5113494;28;20016;-75
2021/08/08 10:39:59;;;;;;;4.57;1.67;;;;;;;;;;5113406;28;20048;-76
2021/08/08 10:42:24;;;;;;;5.00;2.08;;;;;;;;;;5113397;28;20106;-75
2021/08/08 10:44:54;;;;;;;7.18;2.55;;;;;;;;;;5113070;28;20068;-75
2021/08/08 10:47:25;;;;;;;7.45;2.08;;;;;;;;;;5113374;28;20081;-75
2021/08/08 10:49:50;;;;;;;6.22;2.20;;;;;;;;;;5113716;28;20031;-76
2021/08/08 10:52:15;;;;;;;7.38;1.77;;;;;;;;;;5113274;28;20027;-75
2021/08/08 10:54:42;;;;;;;9.93;2.25;;;;;;;;;;5113348;28;20519;-75
2021/08/08 10:57:11;;;;;;;6.35;1.85;;;;;;;;;;5113292;28;20031;-76
2021/08/08 10:59:41;;;;;;;6.63;2.03;;;;;;;;;;5113227;28;20451;-75
2021/08/08 11:02:07;;;;;;;7.97;1.90;;;;;;;;;;5113128;28;20024;-76
2021/08/08 11:04:32;;;;;;;4.45;2.25;;;;;;;;;;5113219;28;20118;-75
2021/08/08 11:06:58;;;;;;;6.82;2.00;;;;;;;;;;5112821;28;20098;-75
2021/08/08 11:09:23;;;;;;;6.80;1.90;;;;;;;;;;5115411;28;20031;-75
2021/08/08 11:11:53;;;;;;;5.90;1.80;;;;;;;;;;5116575;28;20032;-75
2021/08/08 11:14:18;;;;;;;11.82;3.30;;;;;;;;;;5116724;28;20039;-75
2021/08/08 11:16:46;;;;;;;6.85;2.30;;;;;;;;;;5116887;28;20110;-75
2021/08/08 11:19:12;;;;;;;4.25;2.30;;;;;;;;;;5116580;28;20074;-75
2021/08/08 11:21:37;;;;;;;6.35;2.80;;;;;;;;;;5116714;28;20055;-75
2021/08/08 11:24:03;;;;;;;7.38;2.50;;;;;;;;;;5116433;28;20065;-75
2021/08/08 11:26:29;;;;;;;4.53;1.98;;;;;;;;;;5116581;28;20035;-75
2021/08/08 11:28:58;;;;;;;9.20;2.72;;;;;;;;;;5116394;28;20033;-75
2021/08/08 11:31:24;;;;;;;6.78;2.17;;;;;;;;;;5116058;28;20484;-76
2021/08/08 11:34:00;;;;;;;8.18;2.53;;;;;;;;;;5116314;28;20036;-76
2021/08/08 11:36:30;;;;;;;9.18;2.58;;;;;;;;;;5116438;28;20081;-75
2021/08/08 11:38:56;;;;;;;9.10;2.50;;;;;;;;;;5116267;28;20063;-76
2021/08/08 11:41:22;;;;;;;9.48;2.95;;;;;;;;;;5116123;28;20024;-76
2021/08/08 11:43:47;;;;;;;7.90;2.28;;;;;;;;;;5115864;28;20459;-76
2021/08/08 11:46:21;;;;;;;10.20;3.25;;;;;;;;;;5116168;28;20114;-75
2021/08/08 11:48:46;;;;;;;8.38;2.45;;;;;;;;;;5115829;28;20467;-77
2021/08/08 11:51:17;;;;;;;8.02;2.45;;;;;;;;;;5116096;28;20103;-75
2021/08/08 11:53:43;;;;;;;11.30;2.75;;;;;;;;;;5115841;28;20101;-76
2021/08/08 11:56:11;;;;;;;5.68;2.50;;;;;;;;;;5115913;28;20464;-75
2021/08/08 11:58:46;;;;;;;11.10;2.97;;;;;;;;;;5115870;28;20027;-75
2021/08/08 12:01:12;;;;;;;5.68;2.17;;;;;;;;;;5115803;28;20036;-75
2021/08/08 12:03:38;;;;;;;10.07;3.20;;;;;;;;;;5115822;28;20455;-76
2021/08/08 12:06:03;;;;;;;9.20;2.90;;;;;;;;;;5115602;28;20059;-75
2021/08/08 12:08:28;;;;;;;9.85;2.58;;;;;;;;;;5115663;28;20035;-75
2021/08/08 12:10:55;;;;;;;6.50;2.60;;;;;;;;;;5097374;28;20023;-75
2021/08/08 12:13:20;;;;;;;9.00;2.60;;;;;;;;;;5115459;28;20036;-76
2021/08/08 12:15:45;;;;;;;8.60;3.20;;;;;;;;;;5115561;28;20497;-75
2021/08/08 12:18:11;;;;;;;11.98;2.88;;;;;;;;;;5115465;28;20092;-75
2021/08/08 12:20:37;;;;;;;9.10;2.85;;;;;;;;;;5115034;28;20032;-75
2021/08/08 12:23:06;;;;;;;10.18;3.05;;;;;;;;;;5115307;28;20360;-75
2021/08/08 12:25:32;;;;;;;10.00;3.05;;;;;;;;;;5115144;28;20456;-75
2021/08/08 12:27:57;;;;;;;10.27;2.85;;;;;;;;;;5115292;28;20077;-75
2021/08/08 12:30:24;;;;;;;13.43;3.08;;;;;;;;;;5115225;28;20028;-76
2021/08/08 12:32:50;;;;;;;10.65;3.00;;;;;;;;;;5114760;28;20055;-75
2021/08/08 12:35:17;;;;;;;12.68;3.30;;;;;;;;;;5114832;28;20112;-75
2021/08/08 12:37:43;;;;;;;12.88;3.47;;;;;;;;;;5114895;28;20410;-76
2021/08/08 12:40:10;;;;;;;12.50;3.72;;;;;;;;;;5115008;28;20050;-76
2021/08/08 12:42:35;;;;;;;14.68;4.25;;;;;;;;;;5115063;28;20058;-75
2021/08/08 12:45:02;;;;;;;8.90;3.05;;;;;;;;;;5114946;28;20028;-75
2021/08/08 12:47:31;;;;;;;11.45;3.17;;;;;;;;;;5114926;28;20060;-75
2021/08/08 12:49:56;;;;;;;10.57;2.85;;;;;;;;;;5114861;28;20379;-75
2021/08/08 12:52:22;;;;;;;8.82;2.63;;;;;;;;;;5114859;28;20024;-75
2021/08/08 12:54:47;;;;;;;9.63;2.33;;;;;;;;;;5114745;28;20455;-75
2021/08/08 12:57:12;;;;;;;8.60;3.08;;;;;;;;;;5114734;28;20032;-75
2021/08/08 12:59:37;;;;;;;10.18;3.67;;;;;;;;;;5114805;28;20481;-75
2021/08/08 13:02:03;;;;;;;11.35;3.85;;;;;;;;;;5114328;28;20023;-75
2021/08/08 13:04:28;;;;;;;13.48;3.35;;;;;;;;;;5114537;28;20028;-75
2021/08/08 13:06:54;;;;;;;10.88;4.03;;;;;;;;;;5114521;28;20098;-75
2021/08/08 13:09:19;;;;;;;15.93;4.60;;;;;;;;;;5114178;28;20020;-75
2021/08/08 13:11:45;;;;;;;14.15;3.83;;;;;;;;;;5114565;28;20027;-75
2021/08/08 13:14:11;;;;;;;8.77;3.20;;;;;;;;;;5114654;28;20043;-75
2021/08/08 13:16:36;;;;;;;13.23;3.10;;;;;;;;;;5114448;28;20027;-75
2021/08/08 13:19:01;;;;;;;14.65;3.70;;;;;;;;;;5114245;28;20031;-75
2021/08/08 13:21:27;;;;;;;12.65;3.53;;;;;;;;;;5114379;28;20032;-75
2021/08/08 13:23:53;;;;;;;10.52;3.67;;;;;;;;;;5114235;28;20023;-75
2021/08/08 13:26:19;;;;;;;12.13;3.83;;;;;;;;;;5114286;28;20032;-75
2021/08/08 13:28:47;;;;;;;21.70;4.43;;;;;;;;;;5114181;28;20034;-75
2021/08/08 13:31:12;;;;;;;11.80;4.20;;;;;;;;;;5113331;28;20020;-75
2021/08/08 13:33:38;;;;;;;9.25;3.50;;;;;;;;;;5113644;28;20525;-75
2021/08/08 13:36:03;;;;;;;13.32;4.35;;;;;;;;;;5114010;28;20027;-75
2021/08/08 13:38:28;;;;;;;10.98;4.07;;;;;;;;;;5114133;28;20022;-75
2021/08/08 13:40:54;;;;;;;17.02;4.82;;;;;;;;;;5113982;28;20108;-75
2021/08/08 13:43:19;;;;;;;15.70;4.53;;;;;;;;;;5113987;28;20546;-75
2021/08/08 13:45:44;;;;;;;14.57;5.07;;;;;;;;;;5114301;28;20057;-75
2021/08/08 13:48:10;;;;;;;12.85;5.10;;;;;;;;;;5113683;28;20046;-74
2021/08/08 13:50:35;;;;;;;15.85;5.38;;;;;;;;;;5113843;28;20023;-75
2021/08/08 13:53:01;;;;;;;16.40;4.70;;;;;;;;;;5113701;28;20023;-75
2021/08/08 13:55:26;;;;;;;13.93;4.97;;;;;;;;;;5113523;28;20054;-74
2021/08/08 13:57:51;;;;;;;15.07;4.57;;;;;;;;;;5114123;28;20119;-75
2021/08/08 14:00:17;;;;;;;13.23;4.88;;;;;;;;;;5114036;28;20023;-75
2021/08/08 14:02:43;;;;;;;17.63;5.20;;;;;;;;;;5113749;28;20042;-76
2021/08/08 14:05:13;;;;;;;12.43;3.75;;;;;;;;;;5113408;28;20032;-75
2021/08/08 14:07:38;;;;;;;10.88;4.20;;;;;;;;;;5095505;28;20051;-75
2021/08/08 14:10:04;;;;;;;14.55;4.03;;;;;;;;;;5113644;28;20551;-75
2021/08/08 14:12:29;;;;;;;11.68;3.97;;;;;;;;;;5113691;28;20038;-75
2021/08/08 14:14:55;;;;;;;15.77;4.50;;;;;;;;;;5113527;28;20475;-75
2021/08/08 14:17:20;;;;;;;10.57;3.80;;;;;;;;;;5113636;28;20034;-75
2021/08/08 14:19:45;;;;;;;10.38;3.20;;;;;;;;;;5113565;28;20070;-75
2021/08/08 14:22:11;;;;;;;9.32;2.95;;;;;;;;;;5113696;28;20024;-75
2021/08/08 14:24:36;;;;;;;9.68;2.90;;;;;;;;;;5113689;28;20477;-75
2021/08/08 14:27:01;;;;;;;11.75;3.47;;;;;;;;;;5113887;28;20081;-75